Terminal Aerodrome Forecast
Issued by NWS Wakefield, VA

Home | Current Version | Previous Version | Text Only | Print | Product List | Glossary On
Versions: 1 2 3 4 5 6 7 8 9 10 11 12 13 14 15 16 17 18 19 20 21 22
556
FTUS41 KAKQ 310739 AAA
TAFSBY
TAF AMD
KSBY 310739Z 3108/0106 17003KT P6SM SCT120
     FM310900 VRB02KT 3SM BR SCT005
     FM311300 25004KT P6SM SCT030 SCT120
     FM311800 22007KT P6SM BKN050
     FM010200 22003KT P6SM SCT050 BKN100=

USA.gov is the U.S. government's official web portal to all federal, state and local government web resources and services.